createdAt,value
2016-10-16T00:00:31.473Z,964.35
2016-10-16T00:01:12.061Z,964.36
2016-10-16T00:01:52.642Z,964.35
2016-10-16T00:02:33.227Z,964.38
2016-10-16T00:03:13.807Z,964.38
2016-10-16T00:03:54.393Z,964.4
2016-10-16T00:04:34.975Z,964.36
2016-10-16T00:05:15.555Z,964.36
2016-10-16T00:05:56.138Z,964.38
2016-10-16T00:06:36.725Z,964.37
2016-10-16T00:07:17.307Z,964.37
2016-10-16T00:07:57.882Z,964.38
2016-10-16T00:08:38.464Z,964.37
2016-10-16T00:09:19.047Z,964.37
2016-10-16T00:09:59.626Z,964.37
2016-10-16T00:10:40.218Z,964.38
2016-10-16T00:11:20.803Z,964.39
2016-10-16T00:12:01.381Z,964.39
2016-10-16T00:12:41.966Z,964.39
2016-10-16T00:13:22.551Z,964.38
2016-10-16T00:14:03.132Z,964.36
2016-10-16T00:14:43.716Z,964.34
2016-10-16T00:15:24.301Z,964.4
2016-10-16T00:16:04.884Z,964.37
2016-10-16T00:16:45.455Z,964.4
2016-10-16T00:17:26.037Z,964.4
2016-10-16T00:18:06.619Z,964.38
2016-10-16T00:18:47.205Z,964.44
2016-10-16T00:19:27.787Z,964.41
2016-10-16T00:20:08.356Z,964.45
2016-10-16T00:20:48.936Z,964.42
2016-10-16T00:21:29.517Z,964.4
2016-10-16T00:22:10.103Z,964.4
2016-10-16T00:22:50.687Z,964.39
2016-10-16T00:23:31.271Z,964.4
2016-10-16T00:24:11.855Z,964.4
2016-10-16T00:24:52.436Z,964.43
2016-10-16T00:25:33.019Z,964.41
2016-10-16T00:26:13.593Z,964.4
2016-10-16T00:26:54.168Z,964.43
2016-10-16T00:27:34.750Z,964.41
2016-10-16T00:28:15.331Z,964.44
2016-10-16T00:28:55.908Z,964.4
2016-10-16T00:29:36.487Z,964.45
2016-10-16T00:30:17.069Z,964.44
2016-10-16T00:30:57.647Z,964.5
2016-10-16T00:31:38.230Z,964.45
2016-10-16T00:32:18.801Z,964.49
2016-10-16T00:32:59.383Z,964.49
2016-10-16T00:33:39.960Z,964.54
2016-10-16T00:34:20.536Z,964.52
2016-10-16T00:35:01.121Z,964.56
2016-10-16T00:35:41.702Z,964.52
2016-10-16T00:36:22.282Z,964.55
2016-10-16T00:37:02.864Z,964.55
2016-10-16T00:37:43.448Z,964.57
2016-10-16T00:38:24.032Z,964.54
2016-10-16T00:39:04.615Z,964.6
2016-10-16T00:39:45.194Z,964.6
2016-10-16T00:40:25.775Z,964.62
2016-10-16T00:41:06.354Z,964.6
2016-10-16T00:41:46.938Z,964.62
2016-10-16T00:42:27.519Z,964.6
2016-10-16T00:43:08.107Z,964.63
2016-10-16T00:43:48.684Z,964.57
2016-10-16T00:44:29.269Z,964.59
2016-10-16T00:45:09.850Z,964.59
2016-10-16T00:45:50.433Z,964.52
2016-10-16T00:46:31.021Z,964.6
2016-10-16T00:47:11.597Z,964.55
2016-10-16T00:47:52.178Z,964.55
2016-10-16T00:48:32.759Z,964.58
2016-10-16T00:49:13.339Z,964.6
2016-10-16T00:49:53.923Z,964.59
2016-10-16T00:50:34.507Z,964.57
2016-10-16T00:51:15.092Z,964.57
2016-10-16T00:51:55.672Z,964.57
2016-10-16T00:52:36.249Z,964.58
2016-10-16T00:53:16.838Z,964.6
2016-10-16T00:53:57.422Z,964.59
2016-10-16T00:54:38.003Z,964.57
2016-10-16T00:55:18.578Z,964.58
2016-10-16T00:55:59.164Z,964.6
2016-10-16T00:56:39.748Z,964.58
2016-10-16T00:57:20.331Z,964.6
2016-10-16T00:58:00.917Z,964.61
2016-10-16T00:58:41.495Z,964.6
2016-10-16T00:59:22.079Z,964.6
2016-10-16T01:00:02.656Z,964.62
2016-10-16T01:00:43.236Z,964.58
2016-10-16T01:01:23.811Z,964.6
2016-10-16T01:02:04.395Z,964.6
2016-10-16T01:02:44.986Z,964.63
2016-10-16T01:03:25.565Z,964.62
2016-10-16T01:04:06.148Z,964.6
2016-10-16T01:04:46.727Z,964.59
2016-10-16T01:05:27.312Z,964.62
2016-10-16T01:06:07.896Z,964.6
2016-10-16T01:06:48.480Z,964.61
2016-10-16T01:07:29.059Z,964.62
2016-10-16T01:08:09.636Z,964.66
2016-10-16T01:08:50.211Z,964.63
2016-10-16T01:09:30.781Z,964.65
2016-10-16T01:10:11.359Z,964.61
2016-10-16T01:10:51.936Z,964.63
2016-10-16T01:11:32.516Z,964.66
2016-10-16T01:12:13.094Z,964.66
2016-10-16T01:12:53.675Z,964.71
2016-10-16T01:13:34.249Z,964.7
2016-10-16T01:14:14.827Z,964.71
2016-10-16T01:14:55.418Z,964.69
2016-10-16T01:15:36.001Z,964.69
2016-10-16T01:16:16.579Z,964.75
2016-10-16T01:16:57.164Z,964.75
2016-10-16T01:17:37.745Z,964.72
2016-10-16T01:18:18.330Z,964.74
2016-10-16T01:18:58.909Z,964.73
2016-10-16T01:19:39.492Z,964.73
2016-10-16T01:20:20.073Z,964.75
2016-10-16T01:21:00.644Z,964.72
2016-10-16T01:21:41.218Z,964.76
2016-10-16T01:22:21.805Z,964.72
2016-10-16T01:23:02.391Z,964.67
2016-10-16T01:23:42.972Z,964.73
2016-10-16T01:24:23.560Z,964.69
2016-10-16T01:25:04.127Z,964.69
2016-10-16T01:25:44.715Z,964.7
2016-10-16T01:26:25.292Z,964.7
2016-10-16T01:27:05.875Z,964.69
2016-10-16T01:27:46.460Z,964.71
2016-10-16T01:28:27.043Z,964.71
2016-10-16T01:29:07.627Z,964.7
2016-10-16T01:29:48.211Z,964.72
2016-10-16T01:30:28.792Z,964.72
2016-10-16T01:31:09.373Z,964.66
2016-10-16T01:31:49.955Z,964.7
2016-10-16T01:32:30.539Z,964.66
2016-10-16T01:33:11.119Z,964.67
2016-10-16T01:33:51.690Z,964.64
2016-10-16T01:34:32.270Z,964.67
2016-10-16T01:35:12.851Z,964.63
2016-10-16T01:35:53.432Z,964.69
2016-10-16T01:36:34.013Z,964.65
2016-10-16T01:37:14.596Z,964.63
2016-10-16T01:37:55.178Z,964.66
2016-10-16T01:38:35.766Z,964.67
2016-10-16T01:39:16.347Z,964.64
2016-10-16T01:39:56.927Z,964.62
2016-10-16T01:40:37.507Z,964.63
2016-10-16T01:41:18.087Z,964.6
2016-10-16T01:41:58.673Z,964.62
2016-10-16T01:42:39.255Z,964.6
2016-10-16T01:43:19.837Z,964.63
2016-10-16T01:44:00.420Z,964.63
2016-10-16T01:44:41.000Z,964.61
2016-10-16T01:45:21.584Z,964.61
2016-10-16T01:46:02.166Z,964.56
2016-10-16T01:46:42.749Z,964.63
2016-10-16T01:47:23.327Z,964.59
2016-10-16T01:48:03.904Z,964.64
2016-10-16T01:48:44.485Z,964.65
2016-10-16T01:49:25.067Z,964.63
2016-10-16T01:50:05.646Z,964.61
2016-10-16T01:50:46.228Z,964.63
2016-10-16T01:51:26.805Z,964.64
2016-10-16T01:52:07.401Z,964.63
2016-10-16T01:52:47.983Z,964.64
2016-10-16T01:53:28.567Z,964.66
2016-10-16T01:54:09.152Z,964.65
2016-10-16T01:54:49.736Z,964.68
2016-10-16T01:55:30.314Z,964.67
2016-10-16T01:56:10.893Z,964.67
2016-10-16T01:56:51.473Z,964.66
2016-10-16T01:57:32.055Z,964.63
2016-10-16T01:58:12.634Z,964.66
2016-10-16T01:58:53.978Z,964.67
2016-10-16T01:59:34.043Z,964.67
2016-10-16T02:00:14.630Z,964.66
2016-10-16T02:00:55.211Z,964.67
2016-10-16T02:01:35.793Z,964.64
2016-10-16T02:02:16.379Z,964.62
2016-10-16T02:02:56.959Z,964.64
2016-10-16T02:03:37.540Z,964.64
2016-10-16T02:04:18.118Z,964.65
2016-10-16T02:04:58.697Z,964.64
2016-10-16T02:05:39.278Z,964.65
2016-10-16T02:06:19.857Z,964.64
2016-10-16T02:07:00.445Z,964.67
2016-10-16T02:07:41.022Z,964.66
2016-10-16T02:08:21.611Z,964.66
2016-10-16T02:09:02.196Z,964.66
2016-10-16T02:09:42.776Z,964.64
2016-10-16T02:10:23.362Z,964.64
2016-10-16T02:11:03.939Z,964.64
2016-10-16T02:11:44.516Z,964.64
2016-10-16T02:12:25.101Z,964.64
2016-10-16T02:13:05.684Z,964.6
2016-10-16T02:13:46.266Z,964.63
2016-10-16T02:14:26.854Z,964.62
2016-10-16T02:15:07.433Z,964.58
2016-10-16T02:15:48.000Z,964.59
2016-10-16T02:16:28.578Z,964.58
2016-10-16T02:17:09.160Z,964.55
2016-10-16T02:17:49.744Z,964.58
2016-10-16T02:18:30.329Z,964.57
2016-10-16T02:19:10.909Z,964.55
2016-10-16T02:19:51.490Z,964.58
2016-10-16T02:20:32.075Z,964.56
2016-10-16T02:21:12.658Z,964.59
2016-10-16T02:21:53.240Z,964.6
2016-10-16T02:22:33.818Z,964.59
2016-10-16T02:23:14.393Z,964.61
2016-10-16T02:23:54.978Z,964.62
2016-10-16T02:24:35.557Z,964.62
2016-10-16T02:25:16.137Z,964.63
2016-10-16T02:25:56.718Z,964.62
2016-10-16T02:26:37.306Z,964.6
2016-10-16T02:27:17.891Z,964.6
2016-10-16T02:27:58.472Z,964.62
2016-10-16T02:28:39.050Z,964.63
2016-10-16T02:29:19.629Z,964.63
2016-10-16T02:30:00.207Z,964.64
2016-10-16T02:30:40.786Z,964.62
2016-10-16T02:31:21.371Z,964.62
2016-10-16T02:32:01.954Z,964.67
2016-10-16T02:32:42.541Z,964.64
2016-10-16T02:33:23.119Z,964.66
2016-10-16T02:34:03.695Z,964.64
2016-10-16T02:34:44.281Z,964.61
2016-10-16T02:35:24.867Z,964.62
2016-10-16T02:36:05.451Z,964.66
2016-10-16T02:36:46.026Z,964.62
2016-10-16T02:37:26.613Z,964.67
2016-10-16T02:38:07.196Z,964.61
2016-10-16T02:38:47.777Z,964.66
2016-10-16T02:39:28.358Z,964.67
2016-10-16T02:40:08.940Z,964.65
2016-10-16T02:40:49.530Z,964.66
2016-10-16T02:41:30.104Z,964.66
2016-10-16T02:42:10.687Z,964.64
2016-10-16T02:42:51.268Z,964.63
2016-10-16T02:43:31.853Z,964.6
2016-10-16T02:44:12.431Z,964.63
2016-10-16T02:44:53.018Z,964.63
2016-10-16T02:45:33.599Z,964.63
2016-10-16T02:46:14.185Z,964.61
2016-10-16T02:46:54.770Z,964.6
2016-10-16T02:47:35.353Z,964.61
2016-10-16T02:48:15.936Z,964.56
2016-10-16T02:48:56.525Z,964.58
2016-10-16T02:49:37.103Z,964.54
2016-10-16T02:50:17.686Z,964.57
2016-10-16T02:50:58.268Z,964.57
2016-10-16T02:51:38.849Z,964.54
2016-10-16T02:52:19.432Z,964.55
2016-10-16T02:53:00.023Z,964.53
2016-10-16T02:53:40.596Z,964.54
2016-10-16T02:54:21.178Z,964.55
2016-10-16T02:55:01.757Z,964.54
2016-10-16T02:55:42.337Z,964.54
2016-10-16T02:56:22.913Z,964.55
2016-10-16T02:57:03.481Z,964.54
2016-10-16T02:57:44.061Z,964.55
2016-10-16T02:58:24.630Z,964.57
2016-10-16T02:59:05.208Z,964.56
2016-10-16T02:59:45.794Z,964.56
2016-10-16T03:00:26.373Z,964.59
2016-10-16T03:01:06.954Z,964.59
2016-10-16T03:01:47.535Z,964.59
2016-10-16T03:02:28.114Z,964.6
2016-10-16T03:03:08.690Z,964.59
2016-10-16T03:03:49.271Z,964.61
2016-10-16T03:04:29.853Z,964.61
2016-10-16T03:05:10.427Z,964.64
2016-10-16T03:05:51.009Z,964.63
2016-10-16T03:06:31.590Z,964.65
2016-10-16T03:07:12.170Z,964.64
2016-10-16T03:07:52.748Z,964.61
2016-10-16T03:08:33.315Z,964.63
2016-10-16T03:09:13.906Z,964.69
2016-10-16T03:09:54.488Z,964.68
2016-10-16T03:10:35.068Z,964.66
2016-10-16T03:11:15.647Z,964.66
2016-10-16T03:11:56.227Z,964.69
2016-10-16T03:12:36.803Z,964.67
2016-10-16T03:13:17.388Z,964.64
2016-10-16T03:13:57.968Z,964.68
2016-10-16T03:14:38.556Z,964.65
2016-10-16T03:15:19.136Z,964.67
2016-10-16T03:15:59.720Z,964.66
2016-10-16T03:16:40.303Z,964.66
2016-10-16T03:17:20.888Z,964.67
2016-10-16T03:18:01.468Z,964.72
2016-10-16T03:18:42.048Z,964.65
2016-10-16T03:19:22.622Z,964.74
2016-10-16T03:20:03.208Z,964.68
2016-10-16T03:20:43.784Z,964.73
2016-10-16T03:21:24.367Z,964.72
2016-10-16T03:22:04.946Z,964.73
2016-10-16T03:22:45.524Z,964.74
2016-10-16T03:23:26.102Z,964.75
2016-10-16T03:24:06.683Z,964.8
2016-10-16T03:24:47.266Z,964.78
2016-10-16T03:25:27.847Z,964.76
2016-10-16T03:26:08.434Z,964.76
2016-10-16T03:26:49.016Z,964.78
2016-10-16T03:27:29.598Z,964.74
2016-10-16T03:28:10.172Z,964.78
2016-10-16T03:28:50.753Z,964.82
2016-10-16T03:29:31.332Z,964.79
2016-10-16T03:30:11.912Z,964.8
2016-10-16T03:30:52.493Z,964.8
2016-10-16T03:31:33.072Z,964.83
2016-10-16T03:32:13.659Z,964.83
2016-10-16T03:32:54.245Z,964.86
2016-10-16T03:33:34.827Z,964.85
2016-10-16T03:34:15.405Z,964.87
2016-10-16T03:34:55.982Z,964.87
2016-10-16T03:35:36.560Z,964.87
2016-10-16T03:36:17.144Z,964.88
2016-10-16T03:36:57.723Z,964.94
2016-10-16T03:37:38.303Z,964.92
2016-10-16T03:38:18.883Z,964.95
2016-10-16T03:38:59.465Z,964.92
2016-10-16T03:39:40.044Z,964.95
2016-10-16T03:40:20.627Z,964.95
2016-10-16T03:41:01.211Z,964.99
2016-10-16T03:41:41.788Z,965.02
2016-10-16T03:42:22.556Z,964.98
2016-10-16T03:43:03.504Z,965.01
2016-10-16T03:43:44.311Z,965.06
2016-10-16T03:44:25.296Z,965.08
2016-10-16T03:45:05.883Z,965.03
2016-10-16T03:45:46.651Z,965.12
2016-10-16T03:46:27.385Z,965.07
2016-10-16T03:47:08.125Z,965.08
2016-10-16T03:47:48.804Z,965.05
2016-10-16T03:48:29.387Z,965.08
2016-10-16T03:49:09.972Z,965.08
2016-10-16T03:49:50.572Z,965.08
2016-10-16T03:50:31.160Z,965.1
2016-10-16T03:51:11.976Z,965.1
2016-10-16T03:51:52.752Z,965.06
2016-10-16T03:52:33.464Z,965.13
2016-10-16T03:53:14.046Z,965.09
2016-10-16T03:53:54.633Z,965.13
2016-10-16T03:54:35.389Z,965.12
2016-10-16T03:55:16.452Z,965.11
2016-10-16T03:55:57.135Z,965.11
2016-10-16T03:56:38.739Z,965.1
2016-10-16T03:57:19.623Z,965.11
2016-10-16T03:58:00.426Z,965.14
2016-10-16T03:58:41.178Z,965.09
2016-10-16T03:59:22.009Z,965.14
2016-10-16T04:00:02.880Z,965.14
2016-10-16T04:00:43.740Z,965.1
2016-10-16T04:01:24.445Z,965.12
2016-10-16T04:02:05.187Z,965.09
2016-10-16T04:02:46.181Z,965.07
2016-10-16T04:03:26.986Z,965.1
2016-10-16T04:04:07.638Z,965.09
2016-10-16T04:04:48.699Z,965.09
2016-10-16T04:05:29.698Z,965.08
2016-10-16T04:06:10.559Z,965.06
2016-10-16T04:06:51.370Z,965.11
2016-10-16T04:07:31.948Z,965.08
2016-10-16T04:08:13.013Z,965.12
2016-10-16T04:08:53.589Z,965.09
2016-10-16T04:09:34.286Z,965.09
2016-10-16T04:10:14.868Z,965.07
2016-10-16T04:10:55.451Z,965.07
2016-10-16T04:11:36.033Z,965.1
2016-10-16T04:12:16.611Z,965.15
2016-10-16T04:12:57.190Z,965.12
2016-10-16T04:13:37.771Z,965.12
2016-10-16T04:14:18.345Z,965.14
2016-10-16T04:14:58.929Z,965.13
2016-10-16T04:15:39.508Z,965.13
2016-10-16T04:16:20.088Z,965.12
2016-10-16T04:17:00.884Z,965.11
2016-10-16T04:17:41.493Z,965.12
2016-10-16T04:18:22.088Z,965.15
2016-10-16T04:19:02.659Z,965.16
2016-10-16T04:19:43.298Z,965.15
2016-10-16T04:20:23.894Z,965.15
2016-10-16T04:21:04.502Z,965.11
2016-10-16T04:21:45.076Z,965.13
2016-10-16T04:22:25.672Z,965.15
2016-10-16T04:23:06.251Z,965.12
2016-10-16T04:23:46.832Z,965.16
2016-10-16T04:24:27.440Z,965.18
2016-10-16T04:25:08.017Z,965.17
2016-10-16T04:25:48.619Z,965.17
2016-10-16T04:26:29.246Z,965.14
2016-10-16T04:27:09.828Z,965.16
2016-10-16T04:27:50.414Z,965.18
2016-10-16T04:28:31.029Z,965.19
2016-10-16T04:29:11.612Z,965.19
2016-10-16T04:29:52.214Z,965.2
2016-10-16T04:30:32.797Z,965.17
2016-10-16T04:31:13.397Z,965.21
2016-10-16T04:31:53.991Z,965.23
2016-10-16T04:32:34.600Z,965.23
2016-10-16T04:33:15.210Z,965.26
2016-10-16T04:33:55.813Z,965.25
2016-10-16T04:34:36.406Z,965.28
2016-10-16T04:35:17.033Z,965.28
2016-10-16T04:35:57.626Z,965.3
2016-10-16T04:36:38.219Z,965.28
2016-10-16T04:37:18.823Z,965.33
2016-10-16T04:37:59.401Z,965.34
2016-10-16T04:38:39.984Z,965.31
2016-10-16T04:39:20.563Z,965.34
2016-10-16T04:40:01.128Z,965.33
2016-10-16T04:40:41.773Z,965.34
2016-10-16T04:41:22.371Z,965.35
2016-10-16T04:42:02.999Z,965.34
2016-10-16T04:42:43.573Z,965.34
2016-10-16T04:43:24.152Z,965.31
2016-10-16T04:44:04.717Z,965.32
2016-10-16T04:44:45.311Z,965.34
2016-10-16T04:45:25.886Z,965.31
2016-10-16T04:46:06.478Z,965.32
2016-10-16T04:46:47.046Z,965.33
2016-10-16T04:47:27.613Z,965.33
2016-10-16T04:48:08.207Z,965.35
2016-10-16T04:48:48.824Z,965.34
2016-10-16T04:49:29.401Z,965.38
2016-10-16T04:50:09.983Z,965.39
2016-10-16T04:50:50.571Z,965.38
2016-10-16T04:51:31.158Z,965.41
2016-10-16T04:52:11.744Z,965.37
2016-10-16T04:52:52.317Z,965.39
2016-10-16T04:53:32.900Z,965.38
2016-10-16T04:54:13.481Z,965.4
2016-10-16T04:54:54.065Z,965.38
2016-10-16T04:55:34.669Z,965.38
2016-10-16T04:56:15.267Z,965.38
2016-10-16T04:56:55.854Z,965.33
2016-10-16T04:57:36.432Z,965.37
2016-10-16T04:58:17.015Z,965.38
2016-10-16T04:58:57.589Z,965.32
2016-10-16T04:59:38.195Z,965.36
2016-10-16T05:00:18.829Z,965.33
2016-10-16T05:00:59.403Z,965.38
2016-10-16T05:01:39.983Z,965.35
2016-10-16T05:02:20.564Z,965.35
2016-10-16T05:03:01.234Z,965.38
2016-10-16T05:03:41.866Z,965.38
2016-10-16T05:04:22.484Z,965.39
2016-10-16T05:05:03.089Z,965.4
2016-10-16T05:05:43.667Z,965.41
2016-10-16T05:06:24.248Z,965.4
2016-10-16T05:07:05.013Z,965.43
2016-10-16T05:07:45.597Z,965.41
2016-10-16T05:08:26.177Z,965.44
2016-10-16T05:09:06.757Z,965.38
2016-10-16T05:09:47.339Z,965.4
2016-10-16T05:10:27.923Z,965.39
2016-10-16T05:11:08.513Z,965.42
2016-10-16T05:11:49.083Z,965.41
2016-10-16T05:12:29.672Z,965.44
2016-10-16T05:13:10.244Z,965.44
2016-10-16T05:13:50.829Z,965.43
2016-10-16T05:14:31.407Z,965.47
2016-10-16T05:15:11.990Z,965.44
2016-10-16T05:15:52.572Z,965.41
2016-10-16T05:16:33.303Z,965.4
2016-10-16T05:17:13.892Z,965.42
2016-10-16T05:17:54.712Z,965.44
2016-10-16T05:18:35.436Z,965.45
2016-10-16T05:19:16.089Z,965.42
2016-10-16T05:19:57.171Z,965.44
2016-10-16T05:20:37.863Z,965.42
2016-10-16T05:21:18.457Z,965.42
2016-10-16T05:21:59.246Z,965.46
2016-10-16T05:22:39.819Z,965.4
2016-10-16T05:23:20.719Z,965.43
2016-10-16T05:24:01.314Z,965.4
2016-10-16T05:24:41.897Z,965.44
2016-10-16T05:25:22.854Z,965.49
2016-10-16T05:26:03.550Z,965.47
2016-10-16T05:26:44.128Z,965.46
2016-10-16T05:27:25.198Z,965.47
2016-10-16T05:28:06.079Z,965.47
2016-10-16T05:28:46.659Z,965.45
2016-10-16T05:29:27.238Z,965.47
2016-10-16T05:30:07.824Z,965.47
2016-10-16T05:30:48.585Z,965.47
2016-10-16T05:31:29.532Z,965.47
2016-10-16T05:32:10.115Z,965.47
2016-10-16T05:32:50.872Z,965.47
2016-10-16T05:33:31.545Z,965.48
2016-10-16T05:34:12.355Z,965.47
2016-10-16T05:34:53.241Z,965.46
2016-10-16T05:35:34.132Z,965.46
2016-10-16T05:36:15.000Z,965.49
2016-10-16T05:36:55.826Z,965.47
2016-10-16T05:37:36.785Z,965.44
2016-10-16T05:38:17.395Z,965.45
2016-10-16T05:38:58.299Z,965.46
2016-10-16T05:39:39.098Z,965.46
2016-10-16T05:40:19.672Z,965.44
2016-10-16T05:41:00.257Z,965.46
2016-10-16T05:41:41.123Z,965.41
2016-10-16T05:42:21.858Z,965.44
2016-10-16T05:43:02.846Z,965.45
2016-10-16T05:43:43.646Z,965.45
2016-10-16T05:44:24.222Z,965.43
2016-10-16T05:45:05.097Z,965.45
2016-10-16T05:45:46.053Z,965.48
2016-10-16T05:46:26.662Z,965.5
2016-10-16T05:47:07.249Z,965.48
2016-10-16T05:47:48.120Z,965.48
2016-10-16T05:48:28.710Z,965.47
2016-10-16T05:49:09.289Z,965.48
2016-10-16T05:49:49.863Z,965.47
2016-10-16T05:50:30.448Z,965.49
2016-10-16T05:51:11.029Z,965.52
2016-10-16T05:51:51.611Z,965.57
2016-10-16T05:52:32.191Z,965.54
2016-10-16T05:53:12.774Z,965.53
2016-10-16T05:53:53.363Z,965.55
2016-10-16T05:54:33.945Z,965.54
2016-10-16T05:55:14.694Z,965.53
2016-10-16T05:55:55.280Z,965.56
2016-10-16T05:56:35.862Z,965.57
2016-10-16T05:57:16.442Z,965.56
2016-10-16T05:57:57.045Z,965.55
2016-10-16T05:58:37.625Z,965.58
2016-10-16T05:59:18.209Z,965.57
2016-10-16T05:59:58.799Z,965.59
2016-10-16T06:00:39.380Z,965.58
2016-10-16T06:01:19.966Z,965.62
2016-10-16T06:02:00.549Z,965.59
2016-10-16T06:02:41.134Z,965.64
2016-10-16T06:03:21.720Z,965.64
2016-10-16T06:04:02.298Z,965.65
2016-10-16T06:04:42.875Z,965.62
2016-10-16T06:05:23.455Z,965.64
2016-10-16T06:06:04.056Z,965.59
2016-10-16T06:06:44.623Z,965.64
2016-10-16T06:07:25.203Z,965.6
2016-10-16T06:08:05.787Z,965.62
2016-10-16T06:08:46.371Z,965.64
2016-10-16T06:09:26.951Z,965.67
2016-10-16T06:10:07.520Z,965.67
2016-10-16T06:10:48.103Z,965.68
2016-10-16T06:11:28.688Z,965.63
2016-10-16T06:12:09.274Z,965.68
2016-10-16T06:12:49.849Z,965.72
2016-10-16T06:13:30.430Z,965.7
2016-10-16T06:14:11.015Z,965.73
2016-10-16T06:14:51.597Z,965.74
2016-10-16T06:15:32.184Z,965.78
2016-10-16T06:16:12.760Z,965.77
2016-10-16T06:16:53.338Z,965.77
2016-10-16T06:17:33.919Z,965.79
2016-10-16T06:18:14.500Z,965.76
2016-10-16T06:18:55.085Z,965.81
2016-10-16T06:19:35.666Z,965.82
2016-10-16T06:20:16.253Z,965.83
2016-10-16T06:20:56.829Z,965.87
2016-10-16T06:21:37.414Z,965.86
2016-10-16T06:22:17.999Z,965.88
2016-10-16T06:22:58.577Z,965.84
2016-10-16T06:23:39.151Z,965.58
2016-10-16T06:24:19.731Z,965.6
2016-10-16T06:25:00.320Z,965.57
2016-10-16T06:25:40.899Z,965.62
2016-10-16T06:26:21.485Z,965.59
2016-10-16T06:27:02.113Z,965.63
2016-10-16T06:27:42.697Z,965.58
2016-10-16T06:28:23.621Z,965.63
2016-10-16T06:29:04.466Z,965.63
2016-10-16T06:29:45.266Z,965.68
2016-10-16T06:30:26.123Z,965.6
2016-10-16T06:31:07.133Z,965.66
2016-10-16T06:31:47.946Z,965.64
2016-10-16T06:32:28.654Z,965.64
2016-10-16T06:33:09.608Z,965.65
2016-10-16T06:33:50.674Z,965.65
2016-10-16T06:34:31.708Z,965.66
2016-10-16T06:35:12.538Z,965.67
2016-10-16T06:35:53.122Z,965.68
2016-10-16T06:36:33.705Z,965.66
2016-10-16T06:37:14.305Z,965.67
2016-10-16T06:37:54.843Z,965.69
2016-10-16T06:38:35.633Z,965.67
2016-10-16T06:39:16.392Z,965.69
2016-10-16T06:39:57.189Z,965.72
2016-10-16T06:40:38.003Z,965.7
2016-10-16T06:41:18.775Z,965.74
2016-10-16T06:41:59.506Z,965.71
2016-10-16T06:42:40.097Z,965.67
2016-10-16T06:43:20.926Z,965.67
2016-10-16T06:44:01.772Z,965.67
2016-10-16T06:44:42.524Z,965.68
2016-10-16T06:45:23.211Z,965.67
2016-10-16T06:46:04.128Z,965.69
2016-10-16T06:46:45.127Z,965.65
2016-10-16T06:47:25.849Z,965.69
2016-10-16T06:48:06.809Z,965.69
2016-10-16T06:48:47.510Z,965.69
2016-10-16T06:49:28.337Z,965.69
2016-10-16T06:50:08.894Z,965.73
2016-10-16T06:50:49.852Z,965.73
2016-10-16T06:51:30.581Z,965.73
2016-10-16T06:52:11.310Z,965.75
2016-10-16T06:52:51.870Z,965.76
2016-10-16T06:53:32.640Z,965.72
2016-10-16T06:54:13.288Z,965.74
2016-10-16T06:54:53.896Z,965.75
2016-10-16T06:55:35.658Z,965.75
2016-10-16T06:56:16.452Z,965.69
2016-10-16T06:56:57.314Z,965.75
2016-10-16T06:57:37.898Z,965.74
2016-10-16T06:58:18.708Z,965.72
2016-10-16T06:58:59.408Z,965.72
2016-10-16T06:59:40.124Z,965.78
2016-10-16T07:00:20.975Z,965.78
2016-10-16T07:01:01.694Z,965.81
2016-10-16T07:01:42.744Z,965.81
2016-10-16T07:02:23.390Z,965.81
2016-10-16T07:03:03.960Z,965.79
2016-10-16T07:03:44.516Z,965.77
2016-10-16T07:04:25.291Z,965.8
2016-10-16T07:05:05.886Z,965.78
2016-10-16T07:05:46.437Z,965.78
2016-10-16T07:06:26.991Z,965.74
2016-10-16T07:07:07.554Z,965.78
2016-10-16T07:07:48.100Z,965.81
2016-10-16T07:08:28.657Z,965.82
2016-10-16T07:09:09.211Z,965.87
2016-10-16T07:09:49.797Z,965.9
2016-10-16T07:10:30.412Z,965.87
2016-10-16T07:11:10.927Z,965.91
2016-10-16T07:11:51.511Z,965.88
2016-10-16T07:12:32.086Z,965.87
2016-10-16T07:13:12.677Z,965.9
2016-10-16T07:13:53.262Z,965.91
2016-10-16T07:14:33.834Z,965.92
2016-10-16T07:15:14.389Z,965.92
2016-10-16T07:15:54.952Z,965.89
2016-10-16T07:16:35.488Z,965.91
2016-10-16T07:17:16.028Z,965.92
2016-10-16T07:17:56.691Z,965.93
2016-10-16T07:18:37.259Z,965.94
2016-10-16T07:19:17.816Z,965.95
2016-10-16T07:19:58.429Z,965.92
2016-10-16T07:20:39.145Z,965.97
2016-10-16T07:21:19.721Z,965.95
2016-10-16T07:22:00.311Z,965.94
2016-10-16T07:22:40.903Z,965.98
2016-10-16T07:23:21.471Z,965.99
2016-10-16T07:24:02.162Z,965.97
2016-10-16T07:24:42.746Z,965.99
2016-10-16T07:25:23.347Z,965.99
2016-10-16T07:26:04.249Z,965.97
2016-10-16T07:26:44.988Z,965.97
2016-10-16T07:27:25.661Z,965.94
2016-10-16T07:28:06.457Z,965.94
2016-10-16T07:28:47.022Z,965.89
2016-10-16T07:29:27.935Z,965.92
2016-10-16T07:30:08.598Z,965.92
2016-10-16T07:30:49.525Z,965.94
2016-10-16T07:31:30.125Z,965.91
2016-10-16T07:32:10.737Z,965.93
2016-10-16T07:32:51.391Z,965.92
2016-10-16T07:33:32.002Z,965.92
2016-10-16T07:34:12.690Z,965.88
2016-10-16T07:34:53.706Z,965.95
2016-10-16T07:35:34.542Z,965.9
2016-10-16T07:36:15.456Z,965.92
2016-10-16T07:36:56.307Z,965.91
2016-10-16T07:37:36.962Z,965.92
2016-10-16T07:38:17.718Z,965.91
2016-10-16T07:38:58.414Z,965.94
2016-10-16T07:39:38.974Z,965.9
2016-10-16T07:40:19.772Z,965.95
2016-10-16T07:41:00.362Z,965.93
2016-10-16T07:41:41.197Z,965.96
2016-10-16T07:42:21.967Z,965.95
2016-10-16T07:43:02.553Z,965.95
2016-10-16T07:43:43.137Z,965.98
2016-10-16T07:44:23.892Z,965.98
2016-10-16T07:45:04.578Z,965.97
2016-10-16T07:45:45.334Z,966
2016-10-16T07:46:26.163Z,965.97
2016-10-16T07:47:06.816Z,965.95
2016-10-16T07:47:47.578Z,965.98
2016-10-16T07:48:28.212Z,966.01
2016-10-16T07:49:08.978Z,965.96
2016-10-16T07:49:49.706Z,965.96
2016-10-16T07:50:30.902Z,965.94
2016-10-16T07:51:11.844Z,965.96
2016-10-16T07:51:52.647Z,965.98
2016-10-16T07:52:33.467Z,965.98
2016-10-16T07:53:15.408Z,965.95
2016-10-16T07:53:56.031Z,965.95
2016-10-16T07:54:36.976Z,965.96
2016-10-16T07:55:17.581Z,965.96
2016-10-16T07:55:58.610Z,965.92
2016-10-16T07:56:39.150Z,965.98
2016-10-16T07:57:19.955Z,965.99
2016-10-16T07:58:00.523Z,965.99
2016-10-16T07:58:41.349Z,965.98
2016-10-16T07:59:21.930Z,965.99
2016-10-16T08:00:02.683Z,965.96
2016-10-16T08:00:43.260Z,965.97
2016-10-16T08:01:23.843Z,965.95
2016-10-16T08:02:04.429Z,965.99
2016-10-16T08:02:45.003Z,965.98
2016-10-16T08:03:26.041Z,966.01
2016-10-16T08:04:06.894Z,966
2016-10-16T08:04:47.481Z,966.01
2016-10-16T08:05:28.214Z,966.01
2016-10-16T08:06:08.988Z,966.01
2016-10-16T08:06:50.066Z,966.03
2016-10-16T08:07:30.631Z,966.02
2016-10-16T08:08:11.199Z,966.03
2016-10-16T08:08:51.755Z,966.03
2016-10-16T08:09:32.329Z,966.05
2016-10-16T08:10:13.417Z,966.02
2016-10-16T08:10:53.998Z,966.03
2016-10-16T08:11:34.625Z,966.02
2016-10-16T08:12:15.200Z,966.03
2016-10-16T08:12:55.778Z,966.04
2016-10-16T08:13:36.574Z,966.03
2016-10-16T08:14:17.397Z,966.04
2016-10-16T08:14:57.975Z,966.05
2016-10-16T08:15:38.558Z,966.04
2016-10-16T08:16:19.229Z,966.03
2016-10-16T08:16:59.851Z,966.07
2016-10-16T08:17:40.450Z,966.04
2016-10-16T08:18:21.030Z,966.03
2016-10-16T08:19:01.798Z,966.03
2016-10-16T08:19:42.426Z,966.05
2016-10-16T08:20:23.264Z,966.02
2016-10-16T08:21:03.855Z,966.05
2016-10-16T08:21:44.486Z,966.01
2016-10-16T08:22:25.062Z,966.04
2016-10-16T08:23:05.863Z,966.04
2016-10-16T08:23:46.620Z,966.05
2016-10-16T08:24:27.426Z,966.07
2016-10-16T08:25:08.203Z,966.01
2016-10-16T08:25:48.765Z,966.05
2016-10-16T08:26:29.680Z,966.1
2016-10-16T08:27:10.255Z,966.03
2016-10-16T08:27:50.825Z,966.08
2016-10-16T08:28:31.475Z,966.06